^^
Grace C. Lehan Memorial Weather Station Historical Data
Daily Summary for May 23, 2021 Units:  Both    English   Metric
Daily Weekly Monthly Yearly
  High: Low: Average:
Temperature: 34.6 °F /  1.4 °C 20.2 °F /  -6.6 °C 27.3 °F /  -2.6 °C
Dew Point: 22.6 °F /  -5.2 °C 4.6 °F /  -15.2 °C 11.7 °F /  -11.3 °C
Humidity: 63.3% 38.9% 52%
Wind Speed: 27mph /  43.5km/h - 8.5mph /  13.7km/h
Wind Gust: 33mph /  53.1km/h - -
Wind- - NW
Pressure: 30.07 in /  1018.2 hPa 29.82 in /  1009.7 hPa -
Precipitation: 0.00 in /  0 mm    
 
 
Tabular Data for May 23, 2021
Time Temperature Dew Point Pressure Wind Wind Speed Wind Gust Humidity Rainfall Rate (Hourly) solar
00:04 34.6 °F /  1.4 °C 22.6 °F /  -5.2 °C 29.83in /  1010hPa WNW 4.6mph /  7.4km/h 17mph /  27.4km/h 61% 0.00in /  0mm 0 W/m2
00:09 34.5 °F /  1.4 °C 22.2 °F /  -5.4 °C 29.83in /  1010hPa WNW 6mph /  9.7km/h 15mph /  24.1km/h 60.3% 0.00in /  0mm 0 W/m2
00:14 34.4 °F /  1.3 °C 21.9 °F /  -5.6 °C 29.83in /  1010hPa WNW 6.3mph /  10.1km/h 16mph /  25.7km/h 59.7% 0.00in /  0mm 0 W/m2
00:19 34.3 °F /  1.3 °C 21.9 °F /  -5.6 °C 29.83in /  1010hPa WNW 4.6mph /  7.4km/h 16mph /  25.7km/h 60% 0.00in /  0mm 0 W/m2
00:24 34.3 °F /  1.3 °C 21.6 °F /  -5.8 °C 29.82in /  1009.7hPa WNW 10.3mph /  16.6km/h 18mph /  29km/h 59.4% 0.00in /  0mm 0 W/m2
00:29 34.2 °F /  1.2 °C 21 °F /  -6.1 °C 29.83in /  1010hPa NW 5.1mph /  8.2km/h 18mph /  29km/h 58.1% 0.00in /  0mm 0 W/m2
00:34 34.2 °F /  1.2 °C 20.9 °F /  -6.2 °C 29.83in /  1010hPa WNW 7mph /  11.3km/h 18mph /  29km/h 58% 0.00in /  0mm 0 W/m2
00:39 34.1 °F /  1.2 °C 20.9 °F /  -6.2 °C 29.83in /  1010hPa NW 4.5mph /  7.2km/h 15mph /  24.1km/h 58% 0.00in /  0mm 0 W/m2
00:44 33.9 °F /  1.1 °C 20.7 °F /  -6.3 °C 29.83in /  1010hPa NW 6.4mph /  10.3km/h 16mph /  25.7km/h 58% 0.00in /  0mm 0 W/m2
00:49 33.8 °F /  1 °C 20.4 °F /  -6.4 °C 29.83in /  1010hPa WNW 6.2mph /  10km/h 16mph /  25.7km/h 57.4% 0.00in /  0mm 0 W/m2
00:54 33.7 °F /  0.9 °C 20.1 °F /  -6.6 °C 29.83in /  1010hPa NW 5.5mph /  8.9km/h 16mph /  25.7km/h 57% 0.00in /  0mm 0 W/m2
00:59 33.6 °F /  0.9 °C 19.6 °F /  -6.9 °C 29.83in /  1010hPa WNW 8.5mph /  13.7km/h 16mph /  25.7km/h 56% 0.00in /  0mm 0 W/m2
01:04 33.5 °F /  0.8 °C 19.1 °F /  -7.2 °C 29.83in /  1010hPa NW 6.1mph /  9.8km/h 16mph /  25.7km/h 55% 0.00in /  0mm 0 W/m2
01:09 33.4 °F /  0.8 °C 18.6 °F /  -7.4 °C 29.83in /  1010hPa WNW 10mph /  16.1km/h 20mph /  32.2km/h 54.2% 0.00in /  0mm 0 W/m2
01:14 33.3 °F /  0.7 °C 18.2 °F /  -7.7 °C 29.84in /  1010.4hPa WNW 9.5mph /  15.3km/h 20mph /  32.2km/h 53.6% 0.00in /  0mm 0 W/m2
01:19 33.2 °F /  0.7 °C 18 °F /  -7.8 °C 29.84in /  1010.4hPa WNW 10.3mph /  16.6km/h 20mph /  32.2km/h 53.1% 0.00in /  0mm 0 W/m2
01:24 33.1 °F /  0.6 °C 18 °F /  -7.8 °C 29.84in /  1010.4hPa WNW 7.8mph /  12.6km/h 20mph /  32.2km/h 53.4% 0.00in /  0mm 0 W/m2
01:29 33 °F /  0.6 °C 18.2 °F /  -7.7 °C 29.83in /  1010hPa WNW 5.9mph /  9.5km/h 20mph /  32.2km/h 54% 0.00in /  0mm 0 W/m2
01:34 32.9 °F /  0.5 °C 18 °F /  -7.8 °C 29.84in /  1010.4hPa NW 3.9mph /  6.3km/h 20mph /  32.2km/h 54% 0.00in /  0mm 0 W/m2
01:39 32.7 °F /  0.4 °C 17.9 °F /  -7.8 °C 29.84in /  1010.4hPa NW 5.4mph /  8.7km/h 12mph /  19.3km/h 54% 0.00in /  0mm 0 W/m2
01:44 32.5 °F /  0.3 °C 17.8 °F /  -7.9 °C 29.84in /  1010.4hPa WNW 6mph /  9.7km/h 12mph /  19.3km/h 54% 0.00in /  0mm 0 W/m2
01:49 32.4 °F /  0.2 °C 18 °F /  -7.8 °C 29.84in /  1010.4hPa NW 4.2mph /  6.8km/h 12mph /  19.3km/h 54.7% 0.00in /  0mm 0 W/m2
01:54 32.3 °F /  0.2 °C 17.9 °F /  -7.8 °C 29.85in /  1010.7hPa NW 5.1mph /  8.2km/h 12mph /  19.3km/h 55% 0.00in /  0mm 0 W/m2
01:59 32.1 °F /  0.1 °C 17.8 °F /  -7.9 °C 29.85in /  1010.7hPa WNW 6.8mph /  10.9km/h 13mph /  20.9km/h 55% 0.00in /  0mm 0 W/m2
02:04 32 °F /  0 °C 17.7 °F /  -7.9 °C 29.85in /  1010.7hPa NW 9.6mph /  15.4km/h 19mph /  30.6km/h 55% 0.00in /  0mm 0 W/m2
02:09 32 °F /  0 °C 17.7 °F /  -7.9 °C 29.85in /  1010.7hPa WNW 6.8mph /  10.9km/h 19mph /  30.6km/h 55% 0.00in /  0mm 0 W/m2
02:14 32 °F /  0 °C 18 °F /  -7.8 °C 29.85in /  1010.7hPa WNW 5.3mph /  8.5km/h 19mph /  30.6km/h 55.8% 0.00in /  0mm 0 W/m2
02:19 31.9 °F /  -0.1 °C 18 °F /  -7.8 °C 29.85in /  1010.7hPa WNW 6.3mph /  10.1km/h 19mph /  30.6km/h 56% 0.00in /  0mm 0 W/m2
02:24 31.7 °F /  -0.2 °C 17.9 °F /  -7.8 °C 29.86in /  1011.1hPa WNW 8mph /  12.9km/h 19mph /  30.6km/h 56% 0.00in /  0mm 0 W/m2
02:29 31.7 °F /  -0.2 °C 17.9 °F /  -7.8 °C 29.86in /  1011.1hPa WNW 7.4mph /  11.9km/h 19mph /  30.6km/h 56.3% 0.00in /  0mm 0 W/m2
02:34 31.6 °F /  -0.2 °C 18.1 °F /  -7.7 °C 29.86in /  1011.1hPa WNW 7.8mph /  12.6km/h 19mph /  30.6km/h 57% 0.00in /  0mm 0 W/m2
02:39 31.5 °F /  -0.3 °C 18 °F /  -7.8 °C 29.86in /  1011.1hPa WNW 6mph /  9.7km/h 17mph /  27.4km/h 57% 0.00in /  0mm 0 W/m2
02:44 31.4 °F /  -0.3 °C 18.1 °F /  -7.7 °C 29.86in /  1011.1hPa WNW 8.4mph /  13.5km/h 17mph /  27.4km/h 57.4% 0.00in /  0mm 0 W/m2
02:49 31.4 °F /  -0.3 °C 18.4 °F /  -7.6 °C 29.85in /  1010.7hPa WNW 9mph /  14.5km/h 18mph /  29km/h 58% 0.00in /  0mm 0 W/m2
02:54 31.4 °F /  -0.3 °C 18.4 °F /  -7.6 °C 29.86in /  1011.1hPa WNW 6.9mph /  11.1km/h 18mph /  29km/h 58% 0.00in /  0mm 0 W/m2
02:59 31.4 °F /  -0.3 °C 18.4 °F /  -7.6 °C 29.86in /  1011.1hPa NW 6.3mph /  10.1km/h 18mph /  29km/h 58.2% 0.00in /  0mm 0 W/m2
03:04 31.4 °F /  -0.3 °C 18.5 °F /  -7.5 °C 29.86in /  1011.1hPa WNW 4.6mph /  7.4km/h 18mph /  29km/h 58.5% 0.00in /  0mm 0 W/m2
03:09 31.4 °F /  -0.3 °C 18.7 °F /  -7.4 °C 29.86in /  1011.1hPa WNW 3.4mph /  5.5km/h 11mph /  17.7km/h 59% 0.00in /  0mm 0 W/m2
03:14 31.4 °F /  -0.3 °C 18.7 °F /  -7.4 °C 29.86in /  1011.1hPa WNW 2.6mph /  4.2km/h 11mph /  17.7km/h 59% 0.00in /  0mm 0 W/m2
03:19 31.4 °F /  -0.3 °C 18.7 °F /  -7.4 °C 29.85in /  1010.7hPa WNW 3.8mph /  6.1km/h 12mph /  19.3km/h 59% 0.00in /  0mm 0 W/m2
03:24 31.4 °F /  -0.3 °C 18.7 °F /  -7.4 °C 29.86in /  1011.1hPa WNW 5.9mph /  9.5km/h 13mph /  20.9km/h 59% 0.00in /  0mm 0 W/m2
03:29 31.4 °F /  -0.3 °C 18.7 °F /  -7.4 °C 29.85in /  1010.7hPa WNW 4.5mph /  7.2km/h 13mph /  20.9km/h 59% 0.00in /  0mm 0 W/m2
03:34 31.4 °F /  -0.3 °C 18.7 °F /  -7.4 °C 29.86in /  1011.1hPa WNW 5.7mph /  9.2km/h 13mph /  20.9km/h 59% 0.00in /  0mm 0 W/m2
03:39 31.3 °F /  -0.4 °C 18.6 °F /  -7.4 °C 29.86in /  1011.1hPa WNW 6.9mph /  11.1km/h 16mph /  25.7km/h 59% 0.00in /  0mm 0 W/m2
03:44 31.2 °F /  -0.4 °C 18.5 °F /  -7.5 °C 29.86in /  1011.1hPa WNW 5.3mph /  8.5km/h 16mph /  25.7km/h 59% 0.00in /  0mm 0 W/m2
03:49 31.1 °F /  -0.5 °C 18.5 °F /  -7.5 °C 29.86in /  1011.1hPa WNW 3.1mph /  5km/h 16mph /  25.7km/h 59.1% 0.00in /  0mm 0 W/m2
03:54 31 °F /  -0.6 °C 18.6 °F /  -7.4 °C 29.86in /  1011.1hPa WNW 8mph /  12.9km/h 17mph /  27.4km/h 59.6% 0.00in /  0mm 0 W/m2
03:59 31 °F /  -0.6 °C 18.8 °F /  -7.3 °C 29.86in /  1011.1hPa NW 5.5mph /  8.9km/h 17mph /  27.4km/h 60% 0.00in /  0mm 0 W/m2
04:00 31 °F /  -0.6 °C 18.8 °F /  -7.3 °C 29.86in /  1011.1hPa NNW 6mph /  9.7km/h 17mph /  27.4km/h 60% 0.00in /  0mm 0 W/m2
04:09 31 °F /  -0.6 °C 19.2 °F /  -7.1 °C 29.87in /  1011.4hPa NW 5.5mph /  8.9km/h 12mph /  19.3km/h 61% 0.00in /  0mm 0 W/m2
04:14 30.9 °F /  -0.6 °C 19.5 °F /  -6.9 °C 29.87in /  1011.4hPa NW 7.1mph /  11.4km/h 15mph /  24.1km/h 62% 0.00in /  0mm 0 W/m2
04:19 30.8 °F /  -0.7 °C 19.6 °F /  -6.9 °C 29.87in /  1011.4hPa NW 6.4mph /  10.3km/h 16mph /  25.7km/h 62.8% 0.00in /  0mm 0 W/m2
04:24 30.6 °F /  -0.8 °C 19.5 °F /  -6.9 °C 29.87in /  1011.4hPa NW 5.3mph /  8.5km/h 16mph /  25.7km/h 63% 0.00in /  0mm 0 W/m2
04:29 30.5 °F /  -0.8 °C 19.5 °F /  -6.9 °C 29.87in /  1011.4hPa NW 6mph /  9.7km/h 18mph /  29km/h 63.3% 0.00in /  0mm 0 W/m2
04:34 30.4 °F /  -0.9 °C 19.3 °F /  -7.1 °C 29.87in /  1011.4hPa NW 6.4mph /  10.3km/h 18mph /  29km/h 63% 0.00in /  0mm 0 W/m2
04:39 30.3 °F /  -0.9 °C 19.2 °F /  -7.1 °C 29.87in /  1011.4hPa WNW 2.8mph /  4.5km/h 16mph /  25.7km/h 63% 0.00in /  0mm 0 W/m2
04:44 30.2 °F /  -1 °C 19 °F /  -7.2 °C 29.88in /  1011.7hPa WNW 4.2mph /  6.8km/h 16mph /  25.7km/h 62.5% 0.00in /  0mm 0 W/m2
04:49 30.2 °F /  -1 °C 18.5 °F /  -7.5 °C 29.88in /  1011.7hPa WNW 6.5mph /  10.5km/h 16mph /  25.7km/h 61.4% 0.00in /  0mm 0 W/m2
04:54 30.1 °F /  -1.1 °C 17.9 °F /  -7.8 °C 29.88in /  1011.7hPa NW 3.6mph /  5.8km/h 16mph /  25.7km/h 60% 0.00in /  0mm 0 W/m2
04:59 29.9 °F /  -1.2 °C 17.3 °F /  -8.2 °C 29.88in /  1011.7hPa NW 8.5mph /  13.7km/h 17mph /  27.4km/h 59% 0.00in /  0mm 0 W/m2
05:04 29.8 °F /  -1.2 °C 16.8 °F /  -8.4 °C 29.88in /  1011.7hPa NW 4.9mph /  7.9km/h 17mph /  27.4km/h 58% 0.00in /  0mm 0 W/m2
05:09 29.6 °F /  -1.3 °C 16.7 °F /  -8.5 °C 29.88in /  1011.7hPa NW 3.7mph /  6km/h 9mph /  14.5km/h 58% 0.00in /  0mm 0 W/m2
05:14 29.5 °F /  -1.4 °C 16.5 °F /  -8.6 °C 29.88in /  1011.7hPa WNW 4mph /  6.4km/h 9mph /  14.5km/h 58% 0.00in /  0mm 0 W/m2
05:19 29.3 °F /  -1.5 °C 16.4 °F /  -8.7 °C 29.88in /  1011.7hPa WNW 3.1mph /  5km/h 10mph /  16.1km/h 58% 0.00in /  0mm 0 W/m2
05:24 29.2 °F /  -1.6 °C 16.7 °F /  -8.5 °C 29.88in /  1011.7hPa WNW 0.5mph /  0.8km/h 10mph /  16.1km/h 59% 0.00in /  0mm 0 W/m2
05:29 29 °F /  -1.7 °C 16.5 °F /  -8.6 °C 29.88in /  1011.7hPa WNW 1.1mph /  1.8km/h 10mph /  16.1km/h 59% 0.00in /  0mm 0 W/m2
05:34 28.9 °F /  -1.7 °C 16.4 °F /  -8.7 °C 29.88in /  1011.7hPa NW 1.9mph /  3.1km/h 10mph /  16.1km/h 59% 0.00in /  0mm 0 W/m2
05:39 28.7 °F /  -1.8 °C 16.6 °F /  -8.6 °C 29.89in /  1012.1hPa NW 2.1mph /  3.4km/h 7mph /  11.3km/h 60% 0.00in /  0mm 0 W/m2
05:44 28.5 °F /  -1.9 °C 16.6 °F /  -8.6 °C 29.89in /  1012.1hPa NW 5.9mph /  9.5km/h 13mph /  20.9km/h 60.4% 0.00in /  0mm 0 W/m2
05:49 28.4 °F /  -2 °C 16.7 °F /  -8.5 °C 29.89in /  1012.1hPa NW 0.4mph /  0.6km/h 13mph /  20.9km/h 61% 0.00in /  0mm 0 W/m2
05:54 28.4 °F /  -2 °C 16.9 °F /  -8.4 °C 29.89in /  1012.1hPa NW 7.3mph /  11.7km/h 17mph /  27.4km/h 61.7% 0.00in /  0mm 0 W/m2
05:59 28.4 °F /  -2 °C 17.1 °F /  -8.3 °C 29.90in /  1012.4hPa NW 8mph /  12.9km/h 17mph /  27.4km/h 62% 0.00in /  0mm 0 W/m2
06:04 28.5 °F /  -1.9 °C 17.3 °F /  -8.2 °C 29.90in /  1012.4hPa NW 7.4mph /  11.9km/h 18mph /  29km/h 62.3% 0.00in /  0mm 0 W/m2
06:09 28.6 °F /  -1.9 °C 17.4 °F /  -8.1 °C 29.90in /  1012.4hPa NW 5.8mph /  9.3km/h 18mph /  29km/h 62.5% 0.00in /  0mm 0 W/m2
06:14 28.5 °F /  -1.9 °C 17.2 °F /  -8.2 °C 29.90in /  1012.4hPa NW 6.1mph /  9.8km/h 18mph /  29km/h 62% 0.00in /  0mm 0 W/m2
06:19 28.5 °F /  -1.9 °C 17.1 °F /  -8.3 °C 29.90in /  1012.4hPa NW 4.3mph /  6.9km/h 18mph /  29km/h 61.9% 0.00in /  0mm 0 W/m2
06:24 28.4 °F /  -2 °C 16.6 °F /  -8.6 °C 29.90in /  1012.4hPa NW 8.7mph /  14km/h 18mph /  29km/h 60.9% 0.00in /  0mm 0 W/m2
06:29 28.2 °F /  -2.1 °C 15.8 °F /  -9 °C 29.91in /  1012.8hPa NW 10.2mph /  16.4km/h 22mph /  35.4km/h 59.1% 0.00in /  0mm 0 W/m2
06:34 28 °F /  -2.2 °C 15.6 °F /  -9.1 °C 29.91in /  1012.8hPa NW 8.8mph /  14.2km/h 22mph /  35.4km/h 59% 0.00in /  0mm 0 W/m2
06:39 27.9 °F /  -2.3 °C 15.4 °F /  -9.2 °C 29.91in /  1012.8hPa WNW 8.6mph /  13.8km/h 18mph /  29km/h 59% 0.00in /  0mm 0 W/m2
06:44 27.8 °F /  -2.3 °C 15.2 °F /  -9.3 °C 29.91in /  1012.8hPa NW 10.9mph /  17.5km/h 18mph /  29km/h 58.5% 0.00in /  0mm 0 W/m2
06:49 27.7 °F /  -2.4 °C 14.9 °F /  -9.5 °C 29.91in /  1012.8hPa NW 5.7mph /  9.2km/h 18mph /  29km/h 58% 0.00in /  0mm 0 W/m2
06:54 27.6 °F /  -2.4 °C 14.8 °F /  -9.6 °C 29.91in /  1012.8hPa WNW 7.2mph /  11.6km/h 18mph /  29km/h 58% 0.00in /  0mm 0 W/m2
06:59 27.5 °F /  -2.5 °C 14.7 °F /  -9.6 °C 29.92in /  1013.1hPa WNW 8.5mph /  13.7km/h 18mph /  29km/h 58% 0.00in /  0mm 0 W/m2
07:04 27.4 °F /  -2.6 °C 14.6 °F /  -9.7 °C 29.92in /  1013.1hPa WNW 8mph /  12.9km/h 18mph /  29km/h 58% 0.00in /  0mm 0 W/m2
07:09 27.4 °F /  -2.6 °C 14.4 °F /  -9.8 °C 29.92in /  1013.1hPa WNW 8.7mph /  14km/h 20mph /  32.2km/h 57.6% 0.00in /  0mm 0 W/m2
07:14 27.3 °F /  -2.6 °C 14.2 °F /  -9.9 °C 29.92in /  1013.1hPa WNW 11.2mph /  18km/h 20mph /  32.2km/h 57.2% 0.00in /  0mm 5 W/m2
07:19 27.3 °F /  -2.6 °C 14.1 °F /  -9.9 °C 29.92in /  1013.1hPa WNW 8mph /  12.9km/h 20mph /  32.2km/h 57.1% 0.00in /  0mm 12 W/m2
07:24 27.2 °F /  -2.7 °C 14.3 °F /  -9.8 °C 29.92in /  1013.1hPa WNW 7.4mph /  11.9km/h 20mph /  32.2km/h 57.8% 0.00in /  0mm 16 W/m2
07:29 27.3 °F /  -2.6 °C 14.4 °F /  -9.8 °C 29.92in /  1013.1hPa WNW 8.1mph /  13km/h 20mph /  32.2km/h 57.8% 0.00in /  0mm 16 W/m2
07:34 27.3 °F /  -2.6 °C 14.5 °F /  -9.7 °C 29.92in /  1013.1hPa WNW 8.3mph /  13.4km/h 20mph /  32.2km/h 58% 0.00in /  0mm 25 W/m2
07:39 27.3 °F /  -2.6 °C 14.5 °F /  -9.7 °C 29.92in /  1013.1hPa WNW 6.1mph /  9.8km/h 16mph /  25.7km/h 58% 0.00in /  0mm 19 W/m2
07:44 27.2 °F /  -2.7 °C 14.4 °F /  -9.8 °C 29.92in /  1013.1hPa WNW 7.6mph /  12.2km/h 16mph /  25.7km/h 58% 0.00in /  0mm 19 W/m2
07:49 27.2 °F /  -2.7 °C 14.4 °F /  -9.8 °C 29.92in /  1013.1hPa WNW 7.4mph /  11.9km/h 17mph /  27.4km/h 58% 0.00in /  0mm 23 W/m2
07:54 27.1 °F /  -2.7 °C 14.3 °F /  -9.8 °C 29.92in /  1013.1hPa NW 6.9mph /  11.1km/h 17mph /  27.4km/h 58% 0.00in /  0mm 26 W/m2
07:59 27.1 °F /  -2.7 °C 14.1 °F /  -9.9 °C 29.92in /  1013.1hPa NW 11.7mph /  18.8km/h 32mph /  51.5km/h 57.7% 0.00in /  0mm 26 W/m2
08:04 26.9 °F /  -2.8 °C 12.9 °F /  -10.6 °C 29.92in /  1013.1hPa WNW 27mph /  43.5km/h 27mph /  43.5km/h 55% 0.00in /  0mm 30 W/m2
08:09 26.9 °F /  -2.8 °C 12.9 °F /  -10.6 °C 29.93in /  1013.4hPa WNW 15.6mph /  25.1km/h 29mph /  46.7km/h 55% 0.00in /  0mm 53 W/m2
08:14 26.9 °F /  -2.8 °C 12.9 °F /  -10.6 °C 29.93in /  1013.4hPa WNW 12.5mph /  20.1km/h 29mph /  46.7km/h 55% 0.00in /  0mm 83 W/m2
08:19 27.2 °F /  -2.7 °C 13.2 °F /  -10.4 °C 29.92in /  1013.1hPa WNW 11.9mph /  19.2km/h 29mph /  46.7km/h 55% 0.00in /  0mm 98 W/m2
08:24 27.5 °F /  -2.5 °C 13.3 °F /  -10.4 °C 29.92in /  1013.1hPa WNW 10.9mph /  17.5km/h 29mph /  46.7km/h 54.5% 0.00in /  0mm 137 W/m2
08:29 27.8 °F /  -2.3 °C 13.2 °F /  -10.4 °C 29.92in /  1013.1hPa WNW 14.1mph /  22.7km/h 29mph /  46.7km/h 53.7% 0.00in /  0mm 146 W/m2
08:34 27.8 °F /  -2.3 °C 12.9 °F /  -10.6 °C 29.92in /  1013.1hPa WNW 10.7mph /  17.2km/h 29mph /  46.7km/h 53% 0.00in /  0mm 76 W/m2
08:39 27.6 °F /  -2.4 °C 12.5 °F /  -10.8 °C 29.92in /  1013.1hPa WNW 16.7mph /  26.9km/h 29mph /  46.7km/h 52.6% 0.00in /  0mm 114 W/m2
08:44 27.4 °F /  -2.6 °C 12.4 °F /  -10.9 °C 29.92in /  1013.1hPa WNW 15.1mph /  24.3km/h 32mph /  51.5km/h 52.7% 0.00in /  0mm 141 W/m2
08:49 27.4 °F /  -2.6 °C 12.4 °F /  -10.9 °C 29.93in /  1013.4hPa NW 10.7mph /  17.2km/h 32mph /  51.5km/h 52.8% 0.00in /  0mm 160 W/m2
08:54 27.6 °F /  -2.4 °C 12.4 °F /  -10.9 °C 29.93in /  1013.4hPa WNW 10mph /  16.1km/h 32mph /  51.5km/h 52.4% 0.00in /  0mm 186 W/m2
08:59 27.9 °F /  -2.3 °C 12.6 °F /  -10.8 °C 29.93in /  1013.4hPa WNW 12.2mph /  19.6km/h 32mph /  51.5km/h 52% 0.00in /  0mm 214 W/m2
09:04 28.2 °F /  -2.1 °C 12.8 °F /  -10.7 °C 29.93in /  1013.4hPa WNW 8.3mph /  13.4km/h 32mph /  51.5km/h 52% 0.00in /  0mm 216 W/m2
09:09 28.4 °F /  -2 °C 12.7 °F /  -10.7 °C 29.94in /  1013.8hPa WNW 11mph /  17.7km/h 24mph /  38.6km/h 51.2% 0.00in /  0mm 230 W/m2
09:14 28.5 °F /  -1.9 °C 12.5 °F /  -10.8 °C 29.94in /  1013.8hPa WNW 13.3mph /  21.4km/h 24mph /  38.6km/h 50.6% 0.00in /  0mm 230 W/m2
09:19 28.4 °F /  -2 °C 12.2 °F /  -11 °C 29.94in /  1013.8hPa WNW 13.3mph /  21.4km/h 26mph /  41.8km/h 50.2% 0.00in /  0mm 239 W/m2
09:24 28.3 °F /  -2.1 °C 12.5 °F /  -10.8 °C 29.94in /  1013.8hPa NW 11.8mph /  19km/h 27mph /  43.5km/h 51% 0.00in /  0mm 190 W/m2
09:29 28.4 °F /  -2 °C 12.5 °F /  -10.8 °C 29.94in /  1013.8hPa WNW 15mph /  24.1km/h 28mph /  45.1km/h 50.7% 0.00in /  0mm 279 W/m2
09:34 28.5 °F /  -1.9 °C 12.4 °F /  -10.9 °C 29.94in /  1013.8hPa WNW 13.4mph /  21.6km/h 28mph /  45.1km/h 50.3% 0.00in /  0mm 239 W/m2
09:39 28.6 °F /  -1.9 °C 12.7 °F /  -10.7 °C 29.94in /  1013.8hPa WNW 12.1mph /  19.5km/h 22mph /  35.4km/h 50.8% 0.00in /  0mm 151 W/m2
09:44 28.7 °F /  -1.8 °C 12.9 °F /  -10.6 °C 29.94in /  1013.8hPa WNW 10.8mph /  17.4km/h 22mph /  35.4km/h 51% 0.00in /  0mm 237 W/m2
09:45 28.7 °F /  -1.8 °C 12.9 °F /  -10.6 °C 29.94in /  1013.8hPa WNW 6.7mph /  10.8km/h 22mph /  35.4km/h 51% 0.00in /  0mm 237 W/m2
10:00 28.2 °F /  -2.1 °C 12.4 °F /  -10.9 °C 29.95in /  1014.1hPa NW 12mph /  19.3km/h 26mph /  41.8km/h 51% 0.00in /  0mm 127 W/m2
10:30 29.1 °F /  -1.6 °C 13.2 °F /  -10.4 °C 29.96in /  1014.4hPa NW 11mph /  17.7km/h 27mph /  43.5km/h 51% 0.00in /  0mm 214 W/m2
11:00 30.2 °F /  -1 °C 13.4 °F /  -10.3 °C 29.96in /  1014.4hPa NW 12mph /  19.3km/h 28mph /  45.1km/h 49% 0.00in /  0mm 405 W/m2
11:30 30.2 °F /  -1 °C 13.4 °F /  -10.3 °C 29.95in /  1014.1hPa NW 10mph /  16.1km/h 23mph /  37km/h 49% 0.00in /  0mm 219 W/m2
12:04 29.7 °F /  -1.3 °C 12.5 °F /  -10.8 °C 29.95in /  1014.1hPa NW 11.1mph /  17.9km/h 23mph /  37km/h 48.1% 0.00in /  0mm 219 W/m2
12:09 29.7 °F /  -1.3 °C 12.5 °F /  -10.8 °C 29.95in /  1014.1hPa NW 11mph /  17.7km/h 24mph /  38.6km/h 48% 0.00in /  0mm 462 W/m2
12:14 29.7 °F /  -1.3 °C 12.1 °F /  -11.1 °C 29.95in /  1014.1hPa WNW 11.9mph /  19.2km/h 24mph /  38.6km/h 47.1% 0.00in /  0mm 552 W/m2
12:19 29.7 °F /  -1.3 °C 11.9 °F /  -11.2 °C 29.95in /  1014.1hPa WNW 10.4mph /  16.7km/h 24mph /  38.6km/h 47% 0.00in /  0mm 77 W/m2
12:24 29.6 °F /  -1.3 °C 11.6 °F /  -11.3 °C 29.95in /  1014.1hPa NW 11.2mph /  18km/h 24mph /  38.6km/h 46.3% 0.00in /  0mm 167 W/m2
12:29 29.8 °F /  -1.2 °C 10.8 °F /  -11.8 °C 29.94in /  1013.8hPa NW 14.9mph /  24km/h 28mph /  45.1km/h 44.6% 0.00in /  0mm 165 W/m2
12:34 29.6 °F /  -1.3 °C 10.4 °F /  -12 °C 29.94in /  1013.8hPa NW 11.4mph /  18.3km/h 28mph /  45.1km/h 44% 0.00in /  0mm 258 W/m2
12:39 29.5 °F /  -1.4 °C 10 °F /  -12.2 °C 29.95in /  1014.1hPa WNW 11.4mph /  18.3km/h 32mph /  51.5km/h 43.4% 0.00in /  0mm 193 W/m2
12:44 29.6 °F /  -1.3 °C 10.2 °F /  -12.1 °C 29.94in /  1013.8hPa NW 10.8mph /  17.4km/h 32mph /  51.5km/h 43.6% 0.00in /  0mm 149 W/m2
12:49 29.6 °F /  -1.3 °C 10 °F /  -12.2 °C 29.94in /  1013.8hPa NW 12mph /  19.3km/h 32mph /  51.5km/h 43.3% 0.00in /  0mm 146 W/m2
12:54 29.6 °F /  -1.3 °C 9.4 °F /  -12.6 °C 29.94in /  1013.8hPa NW 12.6mph /  20.3km/h 32mph /  51.5km/h 42.1% 0.00in /  0mm 90 W/m2
12:59 29.6 °F /  -1.3 °C 8.8 °F /  -12.9 °C 29.94in /  1013.8hPa NW 13.1mph /  21.1km/h 32mph /  51.5km/h 41% 0.00in /  0mm 186 W/m2
13:04 29.4 °F /  -1.4 °C 8.7 °F /  -12.9 °C 29.94in /  1013.8hPa NW 12.8mph /  20.6km/h 32mph /  51.5km/h 41% 0.00in /  0mm 401 W/m2
13:09 29.4 °F /  -1.4 °C 8.3 °F /  -13.2 °C 29.94in /  1013.8hPa NW 13.3mph /  21.4km/h 26mph /  41.8km/h 40.4% 0.00in /  0mm 77 W/m2
13:14 29.3 °F /  -1.5 °C 8.2 °F /  -13.2 °C 29.94in /  1013.8hPa NW 13.7mph /  22km/h 27mph /  43.5km/h 40.4% 0.00in /  0mm 274 W/m2
13:19 29.2 °F /  -1.6 °C 8.5 °F /  -13.1 °C 29.94in /  1013.8hPa NW 10.9mph /  17.5km/h 27mph /  43.5km/h 41% 0.00in /  0mm 304 W/m2
13:24 29.4 °F /  -1.4 °C 8.6 °F /  -13 °C 29.94in /  1013.8hPa NW 9mph /  14.5km/h 27mph /  43.5km/h 41% 0.00in /  0mm 399 W/m2
13:29 29.6 °F /  -1.3 °C 8.8 °F /  -12.9 °C 29.95in /  1014.1hPa NW 12mph /  19.3km/h 27mph /  43.5km/h 41% 0.00in /  0mm 218 W/m2
13:34 29.7 °F /  -1.3 °C 8.2 °F /  -13.2 °C 29.95in /  1014.1hPa NW 15mph /  24.1km/h 33mph /  53.1km/h 39.7% 0.00in /  0mm 144 W/m2
13:39 29.5 °F /  -1.4 °C 7.6 °F /  -13.6 °C 29.95in /  1014.1hPa NW 13.8mph /  22.2km/h 33mph /  53.1km/h 39% 0.00in /  0mm 211 W/m2
13:44 29.3 °F /  -1.5 °C 7.5 °F /  -13.6 °C 29.95in /  1014.1hPa NW 10.4mph /  16.7km/h 33mph /  53.1km/h 39% 0.00in /  0mm 167 W/m2
13:49 29.3 °F /  -1.5 °C 7.4 °F /  -13.7 °C 29.95in /  1014.1hPa WNW 11.1mph /  17.9km/h 33mph /  53.1km/h 38.9% 0.00in /  0mm 264 W/m2
13:54 29.3 °F /  -1.5 °C 7.4 °F /  -13.7 °C 29.95in /  1014.1hPa NW 9.6mph /  15.4km/h 33mph /  53.1km/h 39% 0.00in /  0mm 125 W/m2
13:59 29.4 °F /  -1.4 °C 7.6 °F /  -13.6 °C 29.96in /  1014.4hPa NW 15.1mph /  24.3km/h 33mph /  53.1km/h 39.2% 0.00in /  0mm 255 W/m2
14:04 29.1 °F /  -1.6 °C 7.2 °F /  -13.8 °C 29.96in /  1014.4hPa NW 14.2mph /  22.9km/h 33mph /  53.1km/h 39% 0.00in /  0mm 255 W/m2
14:09 28.8 °F /  -1.8 °C 7.2 °F /  -13.8 °C 29.96in /  1014.4hPa NW 13.6mph /  21.9km/h 28mph /  45.1km/h 39.3% 0.00in /  0mm 167 W/m2
14:14 28.9 °F /  -1.7 °C 7.3 °F /  -13.7 °C 29.95in /  1014.1hPa WNW 15mph /  24.1km/h 31mph /  49.9km/h 39.5% 0.00in /  0mm 216 W/m2
14:19 28.8 °F /  -1.8 °C 7.3 °F /  -13.7 °C 29.95in /  1014.1hPa NW 10.9mph /  17.5km/h 31mph /  49.9km/h 39.6% 0.00in /  0mm 192 W/m2
14:24 29 °F /  -1.7 °C 7.6 °F /  -13.6 °C 29.95in /  1014.1hPa NW 9.4mph /  15.1km/h 31mph /  49.9km/h 39.8% 0.00in /  0mm 329 W/m2
14:29 29.1 °F /  -1.6 °C 7.7 °F /  -13.5 °C 29.95in /  1014.1hPa NW 9.6mph /  15.4km/h 31mph /  49.9km/h 39.9% 0.00in /  0mm 338 W/m2
14:34 29.1 °F /  -1.6 °C 7.7 °F /  -13.5 °C 29.96in /  1014.4hPa NW 12mph /  19.3km/h 31mph /  49.9km/h 39.8% 0.00in /  0mm 311 W/m2
14:39 29 °F /  -1.7 °C 7.1 °F /  -13.8 °C 29.95in /  1014.1hPa NW 13.1mph /  21.1km/h 25mph /  40.2km/h 39% 0.00in /  0mm 56 W/m2
14:44 28.8 °F /  -1.8 °C 7.2 °F /  -13.8 °C 29.95in /  1014.1hPa WNW 11.8mph /  19km/h 25mph /  40.2km/h 39.5% 0.00in /  0mm 174 W/m2
14:49 28.8 °F /  -1.8 °C 7.5 °F /  -13.6 °C 29.96in /  1014.4hPa WNW 12.4mph /  20km/h 33mph /  53.1km/h 40% 0.00in /  0mm 174 W/m2
14:54 28.6 °F /  -1.9 °C 7.6 °F /  -13.6 °C 29.96in /  1014.4hPa NW 14.3mph /  23km/h 33mph /  53.1km/h 40.4% 0.00in /  0mm 109 W/m2
14:59 28.5 °F /  -1.9 °C 7.8 °F /  -13.4 °C 29.96in /  1014.4hPa WNW 12.6mph /  20.3km/h 33mph /  53.1km/h 41% 0.00in /  0mm 84 W/m2
15:04 28.4 °F /  -2 °C 7.9 °F /  -13.4 °C 29.96in /  1014.4hPa WNW 12.2mph /  19.6km/h 33mph /  53.1km/h 41.4% 0.00in /  0mm 28 W/m2
15:09 28.3 °F /  -2.1 °C 7.9 °F /  -13.4 °C 29.96in /  1014.4hPa WNW 13.9mph /  22.4km/h 26mph /  41.8km/h 41.5% 0.00in /  0mm 28 W/m2
15:14 28.2 °F /  -2.1 °C 8.4 °F /  -13.1 °C 29.97in /  1014.8hPa WNW 8.9mph /  14.3km/h 26mph /  41.8km/h 42.6% 0.00in /  0mm 26 W/m2
15:19 28.2 °F /  -2.1 °C 8.6 °F /  -13 °C 29.97in /  1014.8hPa WNW 8mph /  12.9km/h 26mph /  41.8km/h 43% 0.00in /  0mm 26 W/m2
15:24 28.2 °F /  -2.1 °C 8.6 °F /  -13 °C 29.97in /  1014.8hPa WNW 9.7mph /  15.6km/h 26mph /  41.8km/h 42.9% 0.00in /  0mm 25 W/m2
15:29 28.2 °F /  -2.1 °C 8.3 °F /  -13.2 °C 29.97in /  1014.8hPa NW 9.9mph /  15.9km/h 26mph /  41.8km/h 42.4% 0.00in /  0mm 25 W/m2
15:34 28.2 °F /  -2.1 °C 8 °F /  -13.3 °C 29.98in /  1015.1hPa NW 8.3mph /  13.4km/h 26mph /  41.8km/h 42% 0.00in /  0mm 23 W/m2
15:39 28 °F /  -2.2 °C 7.9 °F /  -13.4 °C 29.98in /  1015.1hPa NW 11.8mph /  19km/h 24mph /  38.6km/h 42% 0.00in /  0mm 23 W/m2
15:44 27.8 °F /  -2.3 °C 7.7 °F /  -13.5 °C 29.98in /  1015.1hPa WNW 9mph /  14.5km/h 24mph /  38.6km/h 42% 0.00in /  0mm 21 W/m2
15:49 27.6 °F /  -2.4 °C 7.6 °F /  -13.6 °C 29.98in /  1015.1hPa WNW 7.2mph /  11.6km/h 24mph /  38.6km/h 42% 0.00in /  0mm 21 W/m2
15:54 27.6 °F /  -2.4 °C 7.5 °F /  -13.6 °C 29.99in /  1015.5hPa NW 10.4mph /  16.7km/h 24mph /  38.6km/h 42% 0.00in /  0mm 19 W/m2
15:59 27.4 °F /  -2.6 °C 7.3 °F /  -13.7 °C 29.98in /  1015.1hPa WNW 11.3mph /  18.2km/h 24mph /  38.6km/h 42% 0.00in /  0mm 19 W/m2
16:04 27.1 °F /  -2.7 °C 7.1 °F /  -13.8 °C 29.98in /  1015.1hPa WNW 10.4mph /  16.7km/h 17mph /  27.4km/h 42% 0.00in /  0mm 18 W/m2
16:09 27 °F /  -2.8 °C 7.4 °F /  -13.7 °C 29.98in /  1015.1hPa NW 6.7mph /  10.8km/h 17mph /  27.4km/h 42.7% 0.00in /  0mm 18 W/m2
16:14 26.9 °F /  -2.8 °C 7.4 °F /  -13.7 °C 29.99in /  1015.5hPa NW 7.3mph /  11.7km/h 17mph /  27.4km/h 43% 0.00in /  0mm 16 W/m2
16:19 26.8 °F /  -2.9 °C 7.4 °F /  -13.7 °C 29.99in /  1015.5hPa NW 5.7mph /  9.2km/h 17mph /  27.4km/h 43% 0.00in /  0mm 14 W/m2
16:24 26.7 °F /  -2.9 °C 7.3 °F /  -13.7 °C 29.99in /  1015.5hPa NW 8.3mph /  13.4km/h 20mph /  32.2km/h 43% 0.00in /  0mm 14 W/m2
16:29 26.6 °F /  -3 °C 6.7 °F /  -14.1 °C 29.99in /  1015.5hPa NW 7.5mph /  12.1km/h 20mph /  32.2km/h 42% 0.00in /  0mm 12 W/m2
16:34 26.5 °F /  -3.1 °C 6.6 °F /  -14.1 °C 29.99in /  1015.5hPa NW 7.5mph /  12.1km/h 20mph /  32.2km/h 42% 0.00in /  0mm 11 W/m2
16:39 26.4 °F /  -3.1 °C 6.4 °F /  -14.2 °C 29.99in /  1015.5hPa NW 7.1mph /  11.4km/h 20mph /  32.2km/h 42% 0.00in /  0mm 9 W/m2
16:44 26.2 °F /  -3.2 °C 6.3 °F /  -14.3 °C 29.99in /  1015.5hPa WNW 10.3mph /  16.6km/h 23mph /  37km/h 42% 0.00in /  0mm 7 W/m2
16:49 26.1 °F /  -3.3 °C 6.3 °F /  -14.3 °C 30.00in /  1015.8hPa NW 8.8mph /  14.2km/h 23mph /  37km/h 42.4% 0.00in /  0mm 5 W/m2
16:54 26 °F /  -3.3 °C 6.5 °F /  -14.2 °C 30.00in /  1015.8hPa NW 9.5mph /  15.3km/h 23mph /  37km/h 43% 0.00in /  0mm 0 W/m2
16:59 25.8 °F /  -3.4 °C 6.5 °F /  -14.2 °C 30.00in /  1015.8hPa NW 7.1mph /  11.4km/h 23mph /  37km/h 43.4% 0.00in /  0mm 0 W/m2
17:04 25.6 °F /  -3.6 °C 6.8 °F /  -14 °C 30.00in /  1015.8hPa NW 5.2mph /  8.4km/h 23mph /  37km/h 44% 0.00in /  0mm 0 W/m2
17:09 25.5 °F /  -3.6 °C 6.6 °F /  -14.1 °C 30.00in /  1015.8hPa NW 7.8mph /  12.6km/h 16mph /  25.7km/h 44% 0.00in /  0mm 0 W/m2
17:14 25.4 °F /  -3.7 °C 6.5 °F /  -14.2 °C 30.00in /  1015.8hPa NW 5.4mph /  8.7km/h 16mph /  25.7km/h 44% 0.00in /  0mm 0 W/m2
17:19 25.2 °F /  -3.8 °C 6.4 °F /  -14.2 °C 30.00in /  1015.8hPa NW 6.4mph /  10.3km/h 16mph /  25.7km/h 44% 0.00in /  0mm 0 W/m2
17:24 25.1 °F /  -3.8 °C 6.3 °F /  -14.3 °C 30.00in /  1015.8hPa NW 5.9mph /  9.5km/h 16mph /  25.7km/h 44% 0.00in /  0mm 0 W/m2
17:29 25 °F /  -3.9 °C 6.1 °F /  -14.4 °C 30.01in /  1016.1hPa WNW 4.1mph /  6.6km/h 16mph /  25.7km/h 43.8% 0.00in /  0mm 0 W/m2
17:34 24.9 °F /  -3.9 °C 6.1 °F /  -14.4 °C 30.01in /  1016.1hPa NW 5.2mph /  8.4km/h 16mph /  25.7km/h 44% 0.00in /  0mm 0 W/m2
17:39 24.8 °F /  -4 °C 6 °F /  -14.4 °C 30.01in /  1016.1hPa NW 6.4mph /  10.3km/h 14mph /  22.5km/h 44% 0.00in /  0mm 0 W/m2
17:44 24.7 °F /  -4.1 °C 5.6 °F /  -14.7 °C 30.02in /  1016.5hPa NW 10.1mph /  16.3km/h 20mph /  32.2km/h 43.4% 0.00in /  0mm 0 W/m2
17:49 24.6 °F /  -4.1 °C 5.7 °F /  -14.6 °C 30.02in /  1016.5hPa WNW 6.4mph /  10.3km/h 20mph /  32.2km/h 43.9% 0.00in /  0mm 0 W/m2
17:54 24.5 °F /  -4.2 °C 5.2 °F /  -14.9 °C 30.02in /  1016.5hPa NW 6.7mph /  10.8km/h 21mph /  33.8km/h 43.1% 0.00in /  0mm 0 W/m2
17:59 24.3 °F /  -4.3 °C 5.1 °F /  -14.9 °C 30.03in /  1016.8hPa NW 8.6mph /  13.8km/h 21mph /  33.8km/h 43% 0.00in /  0mm 0 W/m2
18:04 24.3 °F /  -4.3 °C 5 °F /  -15 °C 30.03in /  1016.8hPa WNW 9.3mph /  15km/h 21mph /  33.8km/h 43% 0.00in /  0mm 0 W/m2
18:09 24.2 °F /  -4.3 °C 4.9 °F /  -15.1 °C 30.03in /  1016.8hPa NW 9mph /  14.5km/h 19mph /  30.6km/h 43% 0.00in /  0mm 0 W/m2
18:14 24.1 °F /  -4.4 °C 4.9 °F /  -15.1 °C 30.04in /  1017.2hPa WNW 7.6mph /  12.2km/h 19mph /  30.6km/h 43% 0.00in /  0mm 0 W/m2
18:19 24 °F /  -4.4 °C 4.8 °F /  -15.1 °C 30.04in /  1017.2hPa NW 5.1mph /  8.2km/h 19mph /  30.6km/h 43% 0.00in /  0mm 0 W/m2
18:24 23.9 °F /  -4.5 °C 5.1 °F /  -14.9 °C 30.04in /  1017.2hPa WNW 8.1mph /  13km/h 19mph /  30.6km/h 43.7% 0.00in /  0mm 0 W/m2
18:29 23.8 °F /  -4.6 °C 5.1 °F /  -14.9 °C 30.04in /  1017.2hPa NW 6.8mph /  10.9km/h 19mph /  30.6km/h 44% 0.00in /  0mm 0 W/m2
18:34 23.7 °F /  -4.6 °C 5 °F /  -15 °C 30.04in /  1017.2hPa WNW 8.3mph /  13.4km/h 19mph /  30.6km/h 44% 0.00in /  0mm 0 W/m2
18:39 23.6 °F /  -4.7 °C 4.8 °F /  -15.1 °C 30.04in /  1017.2hPa NW 11.3mph /  18.2km/h 23mph /  37km/h 43.9% 0.00in /  0mm 0 W/m2
18:44 23.5 °F /  -4.7 °C 4.6 °F /  -15.2 °C 30.05in /  1017.5hPa NW 8.6mph /  13.8km/h 23mph /  37km/h 43.5% 0.00in /  0mm 0 W/m2
18:49 23.4 °F /  -4.8 °C 4.7 °F /  -15.2 °C 30.05in /  1017.5hPa WNW 11.1mph /  17.9km/h 23mph /  37km/h 44% 0.00in /  0mm 0 W/m2
18:54 23.3 °F /  -4.8 °C 4.6 °F /  -15.2 °C 30.05in /  1017.5hPa NW 9.7mph /  15.6km/h 23mph /  37km/h 44% 0.00in /  0mm 0 W/m2
18:59 23.2 °F /  -4.9 °C 4.9 °F /  -15.1 °C 30.05in /  1017.5hPa WNW 5.3mph /  8.5km/h 23mph /  37km/h 44.7% 0.00in /  0mm 0 W/m2
19:04 23.1 °F /  -4.9 °C 4.9 °F /  -15.1 °C 30.05in /  1017.5hPa WNW 6.2mph /  10km/h 23mph /  37km/h 45% 0.00in /  0mm 0 W/m2
19:09 22.9 °F /  -5.1 °C 4.8 °F /  -15.1 °C 30.06in /  1017.8hPa NW 6.2mph /  10km/h 15mph /  24.1km/h 45% 0.00in /  0mm 0 W/m2
19:14 22.8 °F /  -5.1 °C 5 °F /  -15 °C 30.06in /  1017.8hPa WNW 6.9mph /  11.1km/h 15mph /  24.1km/h 45.6% 0.00in /  0mm 0 W/m2
19:19 22.7 °F /  -5.2 °C 5 °F /  -15 °C 30.06in /  1017.8hPa WNW 7.3mph /  11.7km/h 17mph /  27.4km/h 45.8% 0.00in /  0mm 0 W/m2
19:24 22.7 °F /  -5.2 °C 5.1 °F /  -14.9 °C 30.06in /  1017.8hPa WNW 3.8mph /  6.1km/h 17mph /  27.4km/h 46.1% 0.00in /  0mm 0 W/m2
19:29 22.6 °F /  -5.2 °C 5.2 °F /  -14.9 °C 30.06in /  1017.8hPa WNW 8.2mph /  13.2km/h 18mph /  29km/h 46.6% 0.00in /  0mm 0 W/m2
19:34 22.5 °F /  -5.3 °C 5.4 °F /  -14.8 °C 30.07in /  1018.2hPa NW 10.1mph /  16.3km/h 23mph /  37km/h 47% 0.00in /  0mm 0 W/m2
19:39 22.5 °F /  -5.3 °C 5.6 °F /  -14.7 °C 30.07in /  1018.2hPa NW 11.8mph /  19km/h 23mph /  37km/h 47.5% 0.00in /  0mm 0 W/m2
19:44 22.4 °F /  -5.3 °C 5.7 °F /  -14.6 °C 30.07in /  1018.2hPa NW 9.4mph /  15.1km/h 23mph /  37km/h 48% 0.00in /  0mm 0 W/m2
19:49 22.4 °F /  -5.3 °C 6.1 °F /  -14.4 °C 30.06in /  1017.8hPa NW 8.1mph /  13km/h 23mph /  37km/h 48.8% 0.00in /  0mm 0 W/m2
19:54 22.3 °F /  -5.4 °C 6.1 °F /  -14.4 °C 30.06in /  1017.8hPa NW 7.2mph /  11.6km/h 23mph /  37km/h 49% 0.00in /  0mm 0 W/m2
19:59 22.2 °F /  -5.4 °C 6.2 °F /  -14.3 °C 30.06in /  1017.8hPa NW 10.2mph /  16.4km/h 23mph /  37km/h 49.6% 0.00in /  0mm 0 W/m2
20:04 22.2 °F /  -5.4 °C 6.4 °F /  -14.2 °C 30.06in /  1017.8hPa North 12mph /  19.3km/h 12mph /  19.3km/h 50% 0.00in /  0mm 0 W/m2
20:09 22.2 °F /  -5.4 °C 6.4 °F /  -14.2 °C 30.06in /  1017.8hPa NW 7.5mph /  12.1km/h 19mph /  30.6km/h 50% 0.00in /  0mm 0 W/m2
20:14 22.1 °F /  -5.5 °C 6.6 °F /  -14.1 °C 30.06in /  1017.8hPa NW 8.3mph /  13.4km/h 19mph /  30.6km/h 50.7% 0.00in /  0mm 0 W/m2
20:19 22.1 °F /  -5.5 °C 6.7 °F /  -14.1 °C 30.06in /  1017.8hPa NW 6.8mph /  10.9km/h 19mph /  30.6km/h 51% 0.00in /  0mm 0 W/m2
20:24 22 °F /  -5.6 °C 7.1 °F /  -13.8 °C 30.06in /  1017.8hPa NW 5.5mph /  8.9km/h 19mph /  30.6km/h 52% 0.00in /  0mm 0 W/m2
20:29 22 °F /  -5.6 °C 7 °F /  -13.9 °C 30.06in /  1017.8hPa NW 7.9mph /  12.7km/h 19mph /  30.6km/h 52% 0.00in /  0mm 0 W/m2
20:34 21.9 °F /  -5.6 °C 7.3 °F /  -13.7 °C 30.06in /  1017.8hPa NW 7.2mph /  11.6km/h 20mph /  32.2km/h 52.8% 0.00in /  0mm 0 W/m2
20:39 21.8 °F /  -5.7 °C 7.3 °F /  -13.7 °C 30.07in /  1018.2hPa NW 8.4mph /  13.5km/h 20mph /  32.2km/h 53% 0.00in /  0mm 0 W/m2
20:44 21.8 °F /  -5.7 °C 7.5 °F /  -13.6 °C 30.07in /  1018.2hPa NW 8.4mph /  13.5km/h 20mph /  32.2km/h 53.6% 0.00in /  0mm 0 W/m2
20:49 21.8 °F /  -5.7 °C 7.7 °F /  -13.5 °C 30.07in /  1018.2hPa NW 6.1mph /  9.8km/h 20mph /  32.2km/h 54% 0.00in /  0mm 0 W/m2
20:54 21.8 °F /  -5.7 °C 7.6 °F /  -13.6 °C 30.07in /  1018.2hPa NW 11.5mph /  18.5km/h 25mph /  40.2km/h 53.8% 0.00in /  0mm 0 W/m2
20:59 21.8 °F /  -5.7 °C 7.8 °F /  -13.4 °C 30.07in /  1018.2hPa NW 10.7mph /  17.2km/h 25mph /  40.2km/h 54.1% 0.00in /  0mm 0 W/m2
21:04 21.8 °F /  -5.7 °C 8.1 °F /  -13.3 °C 30.06in /  1017.8hPa NW 10.7mph /  17.2km/h 25mph /  40.2km/h 55% 0.00in /  0mm 0 W/m2
21:09 21.8 °F /  -5.7 °C 8.1 °F /  -13.3 °C 30.06in /  1017.8hPa NW 13.4mph /  21.6km/h 25mph /  40.2km/h 55% 0.00in /  0mm 0 W/m2
21:14 21.7 °F /  -5.7 °C 8.4 °F /  -13.1 °C 30.06in /  1017.8hPa NNW 14.7mph /  23.7km/h 25mph /  40.2km/h 55.9% 0.00in /  0mm 0 W/m2
21:19 21.7 °F /  -5.7 °C 8.4 °F /  -13.1 °C 30.06in /  1017.8hPa NW 6.8mph /  10.9km/h 25mph /  40.2km/h 56% 0.00in /  0mm 0 W/m2
21:24 21.7 °F /  -5.7 °C 8.5 °F /  -13.1 °C 30.07in /  1018.2hPa NW 9.9mph /  15.9km/h 25mph /  40.2km/h 56.3% 0.00in /  0mm 0 W/m2
21:29 21.6 °F /  -5.8 °C 8.7 °F /  -12.9 °C 30.06in /  1017.8hPa NW 10.3mph /  16.6km/h 25mph /  40.2km/h 57% 0.00in /  0mm 0 W/m2
21:34 21.6 °F /  -5.8 °C 8.7 °F /  -12.9 °C 30.06in /  1017.8hPa NW 11.8mph /  19km/h 25mph /  40.2km/h 57% 0.00in /  0mm 0 W/m2
21:39 21.6 °F /  -5.8 °C 9 °F /  -12.8 °C 30.05in /  1017.5hPa NW 11.1mph /  17.9km/h 19mph /  30.6km/h 57.8% 0.00in /  0mm 0 W/m2
21:44 21.6 °F /  -5.8 °C 9.1 °F /  -12.7 °C 30.05in /  1017.5hPa WNW 12.1mph /  19.5km/h 20mph /  32.2km/h 58% 0.00in /  0mm 0 W/m2
21:49 21.6 °F /  -5.8 °C 9.1 °F /  -12.7 °C 30.04in /  1017.2hPa WNW 10.6mph /  17.1km/h 24mph /  38.6km/h 58% 0.00in /  0mm 0 W/m2
21:54 21.6 °F /  -5.8 °C 9.1 °F /  -12.7 °C 30.04in /  1017.2hPa WNW 9.4mph /  15.1km/h 24mph /  38.6km/h 58% 0.00in /  0mm 0 W/m2
21:59 21.5 °F /  -5.8 °C 9.4 °F /  -12.6 °C 30.05in /  1017.5hPa NW 8mph /  12.9km/h 24mph /  38.6km/h 59% 0.00in /  0mm 0 W/m2
22:04 21.6 °F /  -5.8 °C 9.5 °F /  -12.5 °C 30.06in /  1017.8hPa NNW 10.5mph /  16.9km/h 27mph /  43.5km/h 59% 0.00in /  0mm 0 W/m2
22:09 21.6 °F /  -5.8 °C 9.5 °F /  -12.5 °C 30.06in /  1017.8hPa NNW 8.7mph /  14km/h 27mph /  43.5km/h 59% 0.00in /  0mm 0 W/m2
22:14 21.7 °F /  -5.7 °C 9.6 °F /  -12.4 °C 30.06in /  1017.8hPa NW 8.1mph /  13km/h 27mph /  43.5km/h 59% 0.00in /  0mm 0 W/m2
22:19 21.7 °F /  -5.7 °C 9.6 °F /  -12.4 °C 30.06in /  1017.8hPa NW 12.1mph /  19.5km/h 27mph /  43.5km/h 59% 0.00in /  0mm 0 W/m2
22:24 21.7 °F /  -5.7 °C 9.6 °F /  -12.4 °C 30.06in /  1017.8hPa NNW 6mph /  9.7km/h 27mph /  43.5km/h 59% 0.00in /  0mm 0 W/m2
22:29 21.6 °F /  -5.8 °C 9.5 °F /  -12.5 °C 30.06in /  1017.8hPa NW 6.7mph /  10.8km/h 27mph /  43.5km/h 59% 0.00in /  0mm 0 W/m2
22:34 21.5 °F /  -5.8 °C 9.4 °F /  -12.6 °C 30.06in /  1017.8hPa NW 6.2mph /  10km/h 27mph /  43.5km/h 59% 0.00in /  0mm 0 W/m2
22:39 21.5 °F /  -5.8 °C 9.4 °F /  -12.6 °C 30.06in /  1017.8hPa NW 5.3mph /  8.5km/h 24mph /  38.6km/h 59% 0.00in /  0mm 0 W/m2
22:44 21.3 °F /  -5.9 °C 9.3 °F /  -12.6 °C 30.07in /  1018.2hPa NW 3.7mph /  6km/h 24mph /  38.6km/h 59% 0.00in /  0mm 0 W/m2
22:49 21.3 °F /  -5.9 °C 9.2 °F /  -12.7 °C 30.07in /  1018.2hPa NNW 4.7mph /  7.6km/h 24mph /  38.6km/h 59% 0.00in /  0mm 0 W/m2
22:54 21.2 °F /  -6 °C 9.1 °F /  -12.7 °C 30.07in /  1018.2hPa NNW 6.6mph /  10.6km/h 24mph /  38.6km/h 59% 0.00in /  0mm 0 W/m2
22:59 21.1 °F /  -6.1 °C 8.7 °F /  -12.9 °C 30.07in /  1018.2hPa NW 4.1mph /  6.6km/h 24mph /  38.6km/h 58.1% 0.00in /  0mm 0 W/m2
23:00 21.1 °F /  -6.1 °C 8.7 °F /  -12.9 °C 30.06in /  1017.8hPa WSW 2mph /  3.2km/h 24mph /  38.6km/h 58% 0.00in /  0mm 0 W/m2
23:09 20.9 °F /  -6.2 °C 8.4 °F /  -13.1 °C 30.07in /  1018.2hPa NW 5.2mph /  8.4km/h 17mph /  27.4km/h 58% 0.00in /  0mm 0 W/m2
23:14 20.7 °F /  -6.3 °C 8.1 °F /  -13.3 °C 30.07in /  1018.2hPa NW 7.3mph /  11.7km/h 17mph /  27.4km/h 57.4% 0.00in /  0mm 0 W/m2
23:19 20.7 °F /  -6.3 °C 7.9 °F /  -13.4 °C 30.07in /  1018.2hPa NW 5.4mph /  8.7km/h 17mph /  27.4km/h 57% 0.00in /  0mm 0 W/m2
23:24 20.6 °F /  -6.3 °C 7.8 °F /  -13.4 °C 30.07in /  1018.2hPa NW 7mph /  11.3km/h 20mph /  32.2km/h 57% 0.00in /  0mm 0 W/m2
23:29 20.6 °F /  -6.3 °C 7.8 °F /  -13.4 °C 30.07in /  1018.2hPa NW 4.9mph /  7.9km/h 20mph /  32.2km/h 57% 0.00in /  0mm 0 W/m2
23:34 20.5 °F /  -6.4 °C 7.7 °F /  -13.5 °C 30.06in /  1017.8hPa NW 9.3mph /  15km/h 20mph /  32.2km/h 57% 0.00in /  0mm 0 W/m2
23:39 20.4 °F /  -6.4 °C 7.4 °F /  -13.7 °C 30.06in /  1017.8hPa NW 7.9mph /  12.7km/h 20mph /  32.2km/h 56.5% 0.00in /  0mm 0 W/m2
23:44 20.3 °F /  -6.5 °C 7.1 °F /  -13.8 °C 30.06in /  1017.8hPa NW 7.9mph /  12.7km/h 22mph /  35.4km/h 56% 0.00in /  0mm 0 W/m2
23:49 20.3 °F /  -6.5 °C 7.1 °F /  -13.8 °C 30.06in /  1017.8hPa NW 8.9mph /  14.3km/h 22mph /  35.4km/h 56% 0.00in /  0mm 0 W/m2
23:54 20.2 °F /  -6.6 °C 7 °F /  -13.9 °C 30.06in /  1017.8hPa NW 11.4mph /  18.3km/h 22mph /  35.4km/h 56% 0.00in /  0mm 0 W/m2
23:59 20.2 °F /  -6.6 °C 7 °F /  -13.9 °C 30.06in /  1017.8hPa NW 9.4mph /  15.1km/h 22mph /  35.4km/h 56% 0.00in /  0mm 0 W/m2
Hartford County Weather
Compliments of Weather Underground - 2 mb